Lulu Pass Weather Station

This weather station provides temperature, relative humidity (RH), wind speed, gust or max wind speed, and wind direction at 10014ft near Lulu Pass at the head of Fisher Creek. This data can be used with temperature and precipitation data from the Fisher Creek SNOTEL site.

This weather station was purchased by the Friends of the Avalanche Center.

If the data has not been updated recently you can view it directly on datagarrison.com

Elevation
10014ft
Jump to table bottom
Date Time Temperature
deg F
RH, % Wind Speed Wind Gust Wind Direction
03/20/19 02:07 27.0 47 2 4 SE - 124
03/20/19 01:07 25.1 48 2 6 SE - 119
03/20/19 00:07 23.4 44 3 7 SE - 140
03/19/19 23:07 25.6 34 1 4 W - 271
03/19/19 22:07 24.3 37 3 5 NE - 42
03/19/19 21:07 26.2 25 5 7 NE - 28
03/19/19 20:07 26.2 21 6 8 NE - 25
03/19/19 19:07 26.3 25 6 8 N - 7
03/19/19 18:07 27.0 26 5 8 N - 340
03/19/19 17:07 29.7 25 8 12 N - 347
03/19/19 16:07 29.2 24 9 12 N - 350
03/19/19 15:07 28.7 25 12 17 N - 344
03/19/19 14:07 27.7 28 7 13 NW - 324
03/19/19 13:07 27.2 29 7 10 NW - 316
03/19/19 12:07 24.8 30 6 9 NW - 321
03/19/19 11:07 22.5 31 6 10 N - 340
03/19/19 10:07 20.8 29 3 6 NW - 333
03/19/19 09:07 20.0 30 3 6 N - 6
03/19/19 08:07 17.8 42 2 6 NW - 336
03/19/19 07:07 12.5 49 3 10 NW - 314
03/19/19 06:07 12.0 48 8 11 NW - 329
03/19/19 05:07 11.9 48 4 9 W - 289
03/19/19 04:07 13.0 48 5 10 SW - 230
03/19/19 03:07 13.7 53 4 13 SW - 246
03/19/19 02:07 14.1 45 11 21 NW - 336
03/19/19 01:07 15.1 47 20 32 N - 355
03/19/19 00:07 16.0 65 23 33 N - 347
03/18/19 23:07 15.9 69 15 18 N - 340
03/18/19 22:07 15.8 70 14 18 N - 351
03/18/19 21:07 15.5 71 14 18 N - 343
03/18/19 20:07 16.9 70 9 18 N - 343
03/18/19 19:07 17.2 64 7 11 NW - 336
03/18/19 18:07 20.9 60 10 17 NW - 324
03/18/19 17:07 22.6 56 14 18 NW - 326
03/18/19 16:07 24.2 49 18 30 N - 345
03/18/19 15:07 24.7 50 17 29 N - 343
03/18/19 14:07 24.3 52 12 21 NW - 331
03/18/19 13:07 23.8 52 10 15 NW - 337
03/18/19 12:07 22.4 57 7 12 NW - 321
03/18/19 11:07 19.7 67 9 12 NW - 330
03/18/19 10:07 18.0 70 10 14 N - 347
03/18/19 09:07 15.2 77 9 12 N - 352
03/18/19 08:07 13.1 81 8 12 N - 1
03/18/19 07:07 13.5 82 10 17 N - 4
03/18/19 06:07 12.1 86 10 13 N - 355
03/18/19 05:07 13.1 82 9 14 N - 355
03/18/19 04:07 15.1 79 4 7 NE - 24
03/18/19 03:07 15.6 79 2 5 NE - 42
03/18/19 02:07 17.2 81 4 7 E - 110
03/18/19 01:07 16.6 85 5 7 SE - 117